CheckWX is a tool to help pilots better visualize weather data.  It is not intended as a substitute for an official pre-flight weather briefing.

11:39:53 UTC

HESH TAF
Sharm El Sheikh International Airport
Sharm el-Sheikh, Egypt
TAF HESH 130500Z 1306/1412 04010KT CAVOK BECMG 1310/1312 12009KT

Nov-13@
06:00 UTC

Nov-13 @ 06:00 UTC

Nov-13@
10:00 UTC

Nov-13 @ 10:00 UTC

TAF HESH 130500Z 1306/1412 04010KT CAVOK

Expired

Wind
  • 040° at 10 KTS
Conditions
No significant weather
Cloud Levels
  • No significant clouds

Nov-13@
10:00 UTC

Nov-13 @ 10:00 UTC

Nov-14@
12:00 UTC

Nov-14 @ 12:00 UTC

BECMG 1310/1312 12009KT

Becoming

Becoming Conditions expected by Wed, Nov 13, 2019 @ 12:00 UTC

Wind
  • 120° at 9 KTS
Conditions
No significant weather
Cloud Levels
  • No significant clouds